Time;durP1;ratioP1;P1;durP2;ratioP2;P2;SDS_P1;SDS_P2;PMS_P1;PMS_P2;Temp;Humidity;BMP_temperature;BMP_pressure;BME280_temperature;BME280_humidity;BME280_pressure;Samples;Min_cycle;Max_cycle;Signal;HPM_P1;HPM_P2
2021/06/09 00:01:05;;;;;;;2.60;2.17;;;22.70;77.60;;;;;;5111304;28;20027;-85
2021/06/09 00:03:32;;;;;;;2.58;1.90;;;22.60;77.50;;;;;;5111738;28;20027;-85
2021/06/09 00:05:58;;;;;;;2.85;2.05;;;22.70;77.70;;;;;;5110654;28;20055;-86
2021/06/09 00:08:24;;;;;;;3.03;2.03;;;22.70;77.90;;;;;;5112330;28;20459;-86
2021/06/09 00:10:55;;;;;;;2.97;1.88;;;22.60;78.10;;;;;;5111674;28;20114;-87
2021/06/09 00:13:22;;;;;;;4.05;2.10;;;22.60;78.30;;;;;;5111686;28;20444;-85
2021/06/09 00:15:49;;;;;;;3.75;2.10;;;22.60;78.60;;;;;;5109938;28;20475;-86
2021/06/09 00:18:14;;;;;;;3.80;2.42;;;22.60;79.20;;;;;;5112243;28;20020;-87
2021/06/09 00:20:40;;;;;;;3.63;2.38;;;22.60;79.30;;;;;;5110347;28;20026;-86
2021/06/09 00:23:06;;;;;;;3.03;2.20;;;22.60;79.60;;;;;;5110364;28;20030;-83
2021/06/09 00:25:32;;;;;;;2.95;2.17;;;22.60;79.70;;;;;;5111070;28;20022;-85
2021/06/09 00:27:58;;;;;;;4.88;2.33;;;22.60;79.80;;;;;;5110099;28;20028;-84
2021/06/09 00:30:29;;;;;;;2.50;2.30;;;22.60;79.70;;;;;;5111491;28;20031;-85
2021/06/09 00:32:56;;;;;;;3.10;2.42;;;22.60;79.60;;;;;;5111065;28;20016;-86
2021/06/09 00:35:22;;;;;;;3.38;2.33;;;22.60;79.60;;;;;;5110631;28;20030;-82
2021/06/09 00:37:47;;;;;;;2.45;2.13;;;22.60;79.60;;;;;;5111421;28;20024;-84
2021/06/09 00:40:14;;;;;;;3.95;2.55;;;22.60;79.60;;;;;;5110321;28;20549;-82
2021/06/09 00:42:40;;;;;;;2.58;2.38;;;22.60;79.40;;;;;;5111063;28;20387;-83
2021/06/09 00:45:07;;;;;;;2.83;2.28;;;22.60;79.40;;;;;;5111318;28;20024;-79
2021/06/09 00:47:33;;;;;;;2.92;2.42;;;22.60;79.40;;;;;;5110865;28;20052;-80
2021/06/09 00:49:58;;;;;;;5.07;2.55;;;22.50;79.30;;;;;;5109993;28;20062;-81
2021/06/09 00:52:29;;;;;;;3.35;2.47;;;22.50;79.20;;;;;;5111366;28;20027;-81
2021/06/09 00:54:55;;;;;;;3.03;2.35;;;22.50;79.10;;;;;;5109906;28;20026;-82
2021/06/09 00:57:22;;;;;;;4.03;2.03;;;22.50;79.10;;;;;;5109715;28;20027;-81
2021/06/09 00:59:48;;;;;;;3.03;2.15;;;22.50;79.00;;;;;;5110585;28;20028;-80
2021/06/09 01:02:14;;;;;;;5.15;2.40;;;22.50;78.80;;;;;;5109701;28;20077;-80
2021/06/09 01:04:40;;;;;;;2.63;2.38;;;22.50;78.70;;;;;;5109612;28;20042;-81
2021/06/09 01:07:06;;;;;;;3.47;2.83;;;22.50;78.60;;;;;;5112439;28;20090;-81
2021/06/09 01:09:32;;;;;;;2.45;2.20;;;22.50;78.60;;;;;;5115174;28;20068;-81
2021/06/09 01:11:58;;;;;;;3.72;2.60;;;22.50;79.30;;;;;;5115279;28;20027;-80
2021/06/09 01:14:25;;;;;;;2.92;2.63;;;22.40;78.50;;;;;;5115514;28;20015;-81
2021/06/09 01:16:52;;;;;;;4.00;2.63;;;22.40;78.40;;;;;;5113668;28;20031;-84
2021/06/09 01:19:19;;;;;;;2.67;2.38;;;22.40;78.40;;;;;;5115050;28;20498;-84
2021/06/09 01:21:47;;;;;;;3.47;3.10;;;22.40;78.40;;;;;;5114915;28;20027;-83
2021/06/09 01:24:13;;;;;;;3.08;2.45;;;22.40;78.20;;;;;;5113553;28;20409;-83
2021/06/09 01:26:39;;;;;;;4.65;2.63;;;22.40;78.20;;;;;;5113907;28;20024;-85
2021/06/09 01:29:05;;;;;;;3.83;2.60;;;22.40;78.10;;;;;;5114880;28;20024;-85
2021/06/09 01:31:31;;;;;;;3.47;2.40;;;22.40;78.00;;;;;;5113868;28;20046;-84
2021/06/09 01:34:04;;;;;;;4.47;2.20;;;22.40;77.90;;;;;;5115186;28;20020;-80
2021/06/09 01:36:30;;;;;;;3.22;2.30;;;22.40;77.90;;;;;;5113946;28;20514;-84
2021/06/09 01:38:56;;;;;;;3.83;2.53;;;22.40;77.90;;;;;;5115302;28;20110;-86
2021/06/09 01:41:22;;;;;;;4.22;2.85;;;22.40;77.80;;;;;;5114902;28;20095;-89
2021/06/09 01:43:48;;;;;;;2.97;2.47;;;22.40;77.70;;;;;;5115065;27;20031;-86
2021/06/09 01:46:16;;;;;;;3.92;2.65;;;22.40;77.60;;;;;;5115273;28;20036;-89
2021/06/09 01:48:42;;;;;;;2.85;2.35;;;22.30;77.60;;;;;;5114897;28;20035;-88
2021/06/09 01:51:08;;;;;;;3.20;2.90;;;22.30;77.40;;;;;;5114814;28;20031;-87
2021/06/09 01:53:34;;;;;;;3.75;2.72;;;22.30;77.40;;;;;;5113924;28;20019;-86
2021/06/09 01:56:00;;;;;;;4.38;3.20;;;22.30;77.40;;;;;;5114305;28;20024;-88
2021/06/09 01:58:26;;;;;;;2.92;2.58;;;22.30;77.40;;;;;;5114244;28;20020;-85
2021/06/09 02:00:53;;;;;;;4.13;2.95;;;22.30;77.40;;;;;;5112508;28;20028;-86
2021/06/09 02:03:18;;;;;;;3.13;2.63;;;22.30;77.30;;;;;;5114196;28;20100;-82
2021/06/09 02:05:45;;;;;;;4.30;2.95;;;22.30;77.20;;;;;;5113822;28;20073;-84
2021/06/09 02:08:14;;;;;;;3.65;2.35;;;22.30;77.20;;;;;;5114165;28;20065;-84
2021/06/09 02:10:41;;;;;;;4.95;2.58;;;22.30;77.30;;;;;;5113861;28;20035;-83
2021/06/09 02:13:13;;;;;;;2.85;2.40;;;22.30;77.30;;;;;;5114373;28;20028;-83
2021/06/09 02:15:39;;;;;;;3.88;2.10;;;22.30;77.30;;;;;;5113805;28;20095;-85
2021/06/09 02:18:11;;;;;;;3.17;2.88;;;22.20;77.20;;;;;;5112750;28;20055;-86
2021/06/09 02:20:45;;;;;;;3.17;2.53;;;22.20;77.20;;;;;;5113630;28;20386;-83
2021/06/09 02:23:16;;;;;;;4.57;2.60;;;22.20;77.30;;;;;;5112796;28;20023;-82
2021/06/09 02:25:47;;;;;;;4.00;2.65;;;22.20;77.20;;;;;;5113151;28;20027;-86
2021/06/09 02:28:13;;;;;;;3.33;2.97;;;22.20;77.10;;;;;;5112336;28;20445;-83
2021/06/09 02:30:41;;;;;;;4.35;3.15;;;22.20;77.00;;;;;;5112223;28;20071;-84
2021/06/09 02:33:07;;;;;;;2.95;2.63;;;22.20;76.90;;;;;;5112566;28;20035;-84
2021/06/09 02:35:37;;;;;;;3.40;2.38;;;22.20;77.00;;;;;;5113161;28;20023;-83
2021/06/09 02:38:04;;;;;;;3.00;2.67;;;22.20;76.90;;;;;;5113572;28;20020;-86
2021/06/09 02:40:30;;;;;;;3.83;3.10;;;22.20;76.90;;;;;;5112004;28;20057;-83
2021/06/09 02:42:55;;;;;;;3.38;2.50;;;22.20;76.80;;;;;;5113983;28;20125;-87
2021/06/09 02:45:21;;;;;;;3.15;2.65;;;22.20;76.80;;;;;;5113482;28;20095;-84
2021/06/09 02:47:54;;;;;;;4.07;2.92;;;22.20;76.80;;;;;;5111786;28;20067;-83
2021/06/09 02:50:22;;;;;;;4.60;3.25;;;22.20;76.70;;;;;;5113455;28;20066;-81
2021/06/09 02:53:03;;;;;;;4.53;2.55;;;22.10;76.70;;;;;;5112860;28;20123;-79
2021/06/09 02:55:55;;;;;;;4.18;2.95;;;22.10;76.50;;;;;;5112753;28;20038;-80
2021/06/09 02:58:30;;;;;;;4.10;3.55;;;22.10;76.50;;;;;;5113212;28;20474;-80
2021/06/09 03:01:01;;;;;;;4.70;3.08;;;22.10;76.30;;;;;;5112703;28;20376;-80
2021/06/09 03:03:49;;;;;;;3.88;2.92;;;22.10;76.30;;;;;;5111335;28;20115;-80
2021/06/09 03:06:22;;;;;;;3.45;2.83;;;22.10;76.20;;;;;;5111620;28;20023;-81
2021/06/09 03:08:59;;;;;;;4.15;3.22;;;22.10;76.20;;;;;;5112407;28;20077;-79
2021/06/09 03:11:32;;;;;;;2.90;2.53;;;22.10;76.20;;;;;;5113234;28;20035;-79
2021/06/09 03:15:14;;;;;;;3.20;2.58;;;22.10;76.20;;;;;;5112877;28;20016;-80
2021/06/09 03:17:15;;;;;;;5.50;2.85;;;22.10;76.20;;;;;;5107675;28;20440;-80
2021/06/09 03:19:47;;;;;;;3.75;2.92;;;22.10;76.10;;;;;;5112563;28;20039;-81
2021/06/09 03:22:34;;;;;;;2.67;2.42;;;22.10;76.20;;;;;;5112747;28;20019;-79
2021/06/09 03:25:01;;;;;;;5.80;3.40;;;22.10;76.20;;;;;;5111797;28;20464;-80
2021/06/09 03:27:47;;;;;;;4.28;2.55;;;22.10;76.20;;;;;;5112479;28;20531;-83
2021/06/09 03:30:15;;;;;;;3.55;2.63;;;22.00;76.10;;;;;;5112275;28;20027;-85
2021/06/09 03:32:55;;;;;;;5.03;2.92;;;22.00;76.00;;;;;;5111093;28;20123;-85
2021/06/09 03:35:26;;;;;;;3.38;2.50;;;22.00;76.00;;;;;;5112648;28;20072;-82
2021/06/09 03:37:55;;;;;;;4.20;2.80;;;22.00;76.00;;;;;;5112362;28;20421;-86
2021/06/09 03:40:30;;;;;;;3.50;2.95;;;22.00;76.00;;;;;;5112547;28;20020;-84
2021/06/09 03:43:01;;;;;;;3.67;2.92;;;22.00;76.00;;;;;;5110954;28;20034;-85
2021/06/09 03:45:29;;;;;;;3.00;2.55;;;22.00;75.90;;;;;;5112162;28;20031;-80
2021/06/09 03:47:56;;;;;;;4.57;3.10;;;22.00;75.90;;;;;;5112644;28;20023;-85
2021/06/09 03:50:24;;;;;;;4.00;3.03;;;22.00;75.90;;;;;;5112112;28;20388;-86
2021/06/09 03:52:51;;;;;;;3.22;2.30;;;22.00;75.90;;;;;;5112189;28;20065;-85
2021/06/09 03:55:22;;;;;;;4.13;3.05;;;22.00;75.80;;;;;;5112530;28;20101;-88
2021/06/09 03:57:50;;;;;;;5.15;3.10;;;22.00;75.80;;;;;;5111950;28;20024;-85
2021/06/09 04:00:18;;;;;;;2.90;2.40;;;22.00;75.80;;;;;;5110793;28;20479;-84
2021/06/09 04:02:46;;;;;;;4.20;3.10;;;22.00;75.70;;;;;;5111324;28;20035;-85
2021/06/09 04:05:12;;;;;;;5.15;3.17;;;21.90;75.70;;;;;;5111900;28;20032;-86
2021/06/09 04:07:38;;;;;;;3.40;2.60;;;21.90;75.60;;;;;;5111638;28;20498;-85
2021/06/09 04:10:05;;;;;;;3.67;3.28;;;21.90;75.50;;;;;;5112046;28;20023;-85
2021/06/09 04:12:34;;;;;;;3.42;2.83;;;21.90;75.50;;;;;;5111916;28;20032;-87
2021/06/09 04:15:01;;;;;;;3.67;2.90;;;21.90;75.50;;;;;;5111724;28;20019;-82
2021/06/09 04:17:29;;;;;;;3.10;2.63;;;21.90;75.50;;;;;;5112111;28;20027;-80
2021/06/09 04:20:00;;;;;;;3.50;2.88;;;21.90;75.40;;;;;;5111887;28;20099;-87
2021/06/09 04:22:26;;;;;;;3.42;3.10;;;21.90;75.30;;;;;;5111774;28;20372;-85
2021/06/09 04:24:52;;;;;;;4.25;3.30;;;21.90;75.40;;;;;;5110783;28;20084;-88
2021/06/09 04:27:22;;;;;;;3.70;3.28;;;21.90;75.30;;;;;;5112013;28;20491;-88
2021/06/09 04:29:49;;;;;;;3.55;3.17;;;21.90;75.30;;;;;;5093682;28;20483;-86
2021/06/09 04:32:14;;;;;;;3.35;2.75;;;21.90;75.30;;;;;;5111607;28;20046;-86
2021/06/09 04:34:55;;;;;;;4.45;2.90;;;21.90;75.30;;;;;;5111583;28;20020;-87
2021/06/09 04:37:23;;;;;;;3.40;2.83;;;21.80;75.20;;;;;;5111771;28;20024;-87
2021/06/09 04:39:50;;;;;;;3.70;3.15;;;21.80;75.20;;;;;;5111200;28;20483;-85
2021/06/09 04:42:17;;;;;;;2.88;2.58;;;21.80;75.20;;;;;;5113622;28;20024;-83
2021/06/09 04:44:44;;;;;;;4.80;3.60;;;21.80;75.10;;;;;;5115628;28;20433;-85
2021/06/09 04:47:11;;;;;;;3.70;3.08;;;21.80;75.10;;;;;;5115434;28;20051;-84
2021/06/09 04:49:43;;;;;;;3.33;2.70;;;21.80;75.10;;;;;;5114998;28;20031;-82
2021/06/09 04:52:09;;;;;;;3.83;2.65;;;21.80;75.10;;;;;;5115397;28;20035;-83
2021/06/09 04:54:36;;;;;;;5.22;2.92;;;21.80;75.10;;;;;;5115155;28;20022;-83
2021/06/09 04:57:03;;;;;;;4.13;2.70;;;21.80;75.10;;;;;;5114832;28;20023;-83
2021/06/09 04:59:29;;;;;;;2.88;2.42;;;21.80;75.10;;;;;;5115366;28;20031;-82
2021/06/09 05:01:55;;;;;;;3.25;2.67;;;21.80;75.20;;;;;;5113385;28;20023;-83
2021/06/09 05:04:20;;;;;;;3.33;2.47;;;21.80;75.10;;;;;;5114949;28;20043;-84
2021/06/09 05:06:46;;;;;;;4.60;3.50;;;21.80;75.10;;;;;;5115334;28;20055;-86
2021/06/09 05:09:12;;;;;;;4.60;2.65;;;21.80;75.10;;;;;;5115238;28;20020;-85
2021/06/09 05:11:50;;;;;;;3.85;2.75;;;21.80;75.10;;;;;;5115096;28;20034;-85
2021/06/09 05:14:30;;;;;;;3.03;2.60;;;21.80;75.00;;;;;;5115704;28;20486;-88
2021/06/09 05:16:58;;;;;;;2.97;2.40;;;21.80;75.00;;;;;;5115026;28;20028;-92
2021/06/09 05:19:27;;;;;;;3.20;2.80;;;21.80;75.00;;;;;;5116208;28;20016;-88
2021/06/09 05:22:01;;;;;;;2.90;2.60;;;21.80;74.80;;;;;;5114667;28;20402;-84
2021/06/09 05:24:28;;;;;;;4.38;2.95;;;21.80;75.00;;;;;;5114908;28;20501;-81
2021/06/09 05:26:55;;;;;;;2.97;2.35;;;21.80;74.80;;;;;;5115675;28;20019;-88
2021/06/09 05:29:23;;;;;;;4.13;2.60;;;21.80;74.80;;;;;;5115019;28;20030;-87
2021/06/09 05:31:50;;;;;;;4.13;2.00;;;21.80;74.80;;;;;;5114793;28;20031;-82
2021/06/09 05:34:18;;;;;;;2.75;2.22;;;21.80;74.70;;;;;;5114063;28;20096;-80
2021/06/09 05:36:44;;;;;;;3.15;2.28;;;21.80;74.70;;;;;;5115011;27;20035;-80
2021/06/09 05:39:10;;;;;;;3.22;2.30;;;21.80;74.70;;;;;;5114078;28;20019;-82
2021/06/09 05:41:35;;;;;;;2.80;2.45;;;21.80;74.70;;;;;;5114704;28;20098;-81
2021/06/09 05:44:01;;;;;;;2.70;2.25;;;21.80;74.70;;;;;;5114711;28;20028;-79
2021/06/09 05:46:28;;;;;;;3.35;2.35;;;21.70;74.60;;;;;;5114571;28;20035;-82
2021/06/09 05:48:54;;;;;;;3.30;2.88;;;21.70;74.60;;;;;;5114945;28;20051;-79
2021/06/09 05:51:19;;;;;;;3.38;2.13;;;21.70;74.50;;;;;;5114201;28;20027;-80
2021/06/09 05:53:52;;;;;;;3.50;2.05;;;21.80;74.60;;;;;;5113878;28;20051;-78
2021/06/09 05:56:18;;;;;;;3.38;2.45;;;21.70;74.40;;;;;;5114379;28;20030;-80
2021/06/09 05:58:44;;;;;;;2.83;2.25;;;21.80;74.60;;;;;;5113020;28;20027;-84
2021/06/09 06:01:11;;;;;;;5.20;2.30;;;21.70;74.40;;;;;;5113938;28;20107;-79
2021/06/09 06:03:38;;;;;;;3.63;2.30;;;21.70;74.40;;;;;;5112568;28;20023;-80
2021/06/09 06:06:06;;;;;;;3.08;2.13;;;21.70;74.40;;;;;;5114175;28;20026;-87
2021/06/09 06:08:34;;;;;;;2.80;2.13;;;21.70;74.50;;;;;;5113232;28;20020;-86
2021/06/09 06:11:06;;;;;;;2.70;2.03;;;21.70;74.40;;;;;;5114242;28;20114;-81
2021/06/09 06:13:33;;;;;;;6.78;5.22;;;21.70;74.30;;;;;;5112351;28;20055;-79
2021/06/09 06:15:58;;;;;;;12.05;8.93;;;21.70;75.00;;;;;;5113587;28;20023;-79
2021/06/09 06:18:33;;;;;;;13.52;9.90;;;21.60;74.50;;;;;;5114138;28;20069;-80
2021/06/09 06:20:59;;;;;;;12.60;10.25;;;21.50;75.10;;;;;;5113412;28;20032;-80
2021/06/09 06:23:26;;;;;;;14.45;10.32;;;21.50;75.50;;;;;;5112448;28;20449;-79
2021/06/09 06:25:53;;;;;;;13.05;11.40;;;21.40;75.60;;;;;;5112862;28;20077;-80
2021/06/09 06:28:19;;;;;;;18.58;12.23;;;21.30;75.90;;;;;;5113602;28;20022;-80
2021/06/09 06:30:45;;;;;;;18.13;12.88;;;21.30;75.80;;;;;;5112093;28;20032;-80
2021/06/09 06:33:12;;;;;;;19.08;11.85;;;21.30;75.80;;;;;;5110940;28;20038;-80
2021/06/09 06:35:39;;;;;;;13.82;11.50;;;21.30;76.10;;;;;;5111648;28;20055;-80
2021/06/09 06:38:04;;;;;;;19.55;11.43;;;21.40;75.90;;;;;;5113906;27;20521;-83
2021/06/09 06:40:32;;;;;;;21.35;11.68;;;21.40;75.90;;;;;;5111343;28;20016;-80
2021/06/09 06:42:58;;;;;;;17.70;11.85;;;21.50;76.10;;;;;;5111703;28;20123;-80
2021/06/09 06:45:24;;;;;;;16.67;12.15;;;21.50;77.90;;;;;;5111751;28;20090;-80
2021/06/09 06:47:51;;;;;;;16.25;10.75;;;21.50;76.30;;;;;;5111406;27;20019;-83
2021/06/09 06:50:20;;;;;;;16.80;11.05;;;21.50;75.60;;;;;;5110423;28;20035;-81
2021/06/09 06:52:47;;;;;;;14.18;10.65;;;21.40;75.70;;;;;;5108466;28;20127;-81
2021/06/09 06:55:13;;;;;;;14.40;8.65;;;21.40;75.80;;;;;;5112868;28;20055;-81
2021/06/09 06:57:39;;;;;;;17.05;9.45;;;21.40;76.60;;;;;;5110948;28;20123;-82
2021/06/09 07:00:17;;;;;;;10.18;7.90;;;21.50;76.20;;;;;;5112502;27;20103;-79
2021/06/09 07:02:56;;;;;;;11.98;8.43;;;21.40;75.80;;;;;;5126454;27;20494;-79
2021/06/09 07:05:24;;;;;;;10.45;7.32;;;21.40;75.20;;;;;;5110858;28;20043;-89
2021/06/09 07:07:50;;;;;;;10.32;6.20;;;21.40;75.60;;;;;;5112553;28;20031;-85
2021/06/09 07:10:18;;;;;;;10.55;6.00;;;21.40;75.30;;;;;;5112834;28;20016;-81
2021/06/09 07:12:45;;;;;;;19.15;5.82;;;21.50;75.20;;;;;;5112764;28;20088;-82
2021/06/09 07:15:19;;;;;;;8.77;5.60;;;21.50;75.70;;;;;;5111587;28;20026;-81
2021/06/09 07:17:53;;;;;;;6.13;4.20;;;21.60;75.30;;;;;;5112062;28;20028;-82
2021/06/09 07:20:21;;;;;;;7.93;4.63;;;21.60;75.30;;;;;;5112782;28;20027;-82
2021/06/09 07:22:47;;;;;;;6.65;4.28;;;21.60;75.30;;;;;;5110944;28;20027;-81
2021/06/09 07:25:13;;;;;;;7.72;4.20;;;21.70;75.20;;;;;;5112599;28;20372;-81
2021/06/09 07:27:42;;;;;;;7.35;3.65;;;21.70;75.10;;;;;;5112471;28;20050;-81
2021/06/09 07:30:10;;;;;;;6.25;3.47;;;21.70;75.10;;;;;;5110742;28;20024;-80
2021/06/09 07:32:37;;;;;;;5.32;2.97;;;21.70;75.00;;;;;;5111445;27;20035;-80
2021/06/09 07:35:04;;;;;;;6.97;2.85;;;21.70;75.00;;;;;;5110591;28;20106;-79
2021/06/09 07:37:33;;;;;;;8.40;3.13;;;21.70;74.90;;;;;;5110970;28;20065;-80
2021/06/09 07:40:02;;;;;;;8.05;3.17;;;21.70;74.80;;;;;;5111766;28;20368;-80
2021/06/09 07:42:30;;;;;;;6.20;2.92;;;21.80;74.70;;;;;;5111019;28;20027;-81
2021/06/09 07:45:04;;;;;;;5.80;3.40;;;21.80;74.70;;;;;;5112316;28;20027;-82
2021/06/09 07:47:32;;;;;;;9.95;3.20;;;21.80;74.70;;;;;;5111380;28;20059;-82
2021/06/09 07:49:59;;;;;;;3.17;2.08;;;21.80;74.80;;;;;;5110409;27;20471;-82
2021/06/09 07:52:27;;;;;;;5.55;2.53;;;21.80;74.70;;;;;;5110911;28;20027;-82
2021/06/09 07:54:54;;;;;;;4.88;2.42;;;21.80;74.70;;;;;;5111256;27;20024;-85
2021/06/09 07:57:21;;;;;;;5.50;2.40;;;21.80;74.50;;;;;;5109485;28;20047;-82
2021/06/09 07:59:49;;;;;;;7.38;2.58;;;21.80;74.50;;;;;;5110829;28;21239;-83
2021/06/09 08:02:20;;;;;;;6.85;2.17;;;21.90;74.40;;;;;;5110476;28;20020;-81
2021/06/09 08:04:46;;;;;;;4.72;2.28;;;21.80;74.30;;;;;;5112414;28;20107;-82
2021/06/09 08:07:12;;;;;;;4.93;2.50;;;21.90;74.40;;;;;;5112709;28;20081;-83
2021/06/09 08:09:38;;;;;;;4.72;1.98;;;21.90;74.30;;;;;;5111499;28;20050;-80
2021/06/09 08:12:06;;;;;;;4.75;2.40;;;21.90;74.20;;;;;;5110562;28;20483;-81
2021/06/09 08:14:32;;;;;;;4.63;2.03;;;21.90;74.20;;;;;;5111780;28;20038;-78
2021/06/09 08:16:58;;;;;;;5.47;2.20;;;21.90;74.10;;;;;;5111871;28;20027;-82
2021/06/09 08:19:24;;;;;;;4.78;1.70;;;21.90;74.00;;;;;;5111174;28;20031;-84
2021/06/09 08:21:50;;;;;;;3.35;1.50;;;22.00;74.00;;;;;;5111730;28;20020;-78
2021/06/09 08:24:15;;;;;;;4.53;1.88;;;22.00;74.10;;;;;;5111409;28;20403;-81
2021/06/09 08:26:42;;;;;;;3.65;2.10;;;22.00;73.90;;;;;;5111676;28;20081;-80
2021/06/09 08:29:08;;;;;;;3.38;1.92;;;22.00;74.00;;;;;;5110285;28;20031;-89
2021/06/09 08:31:36;;;;;;;4.95;1.75;;;22.00;73.80;;;;;;5111615;28;20043;-87
2021/06/09 08:34:05;;;;;;;4.60;1.70;;;22.00;73.70;;;;;;5111066;28;20073;-89
2021/06/09 08:36:35;;;;;;;3.60;1.77;;;22.00;73.70;;;;;;5111934;28;20068;-87
2021/06/09 08:39:03;;;;;;;2.67;1.55;;;22.00;73.70;;;;;;5111810;28;20030;-87
2021/06/09 08:41:31;;;;;;;4.93;2.10;;;22.00;73.60;;;;;;5109971;28;20397;-87
2021/06/09 08:43:59;;;;;;;2.53;1.48;;;22.10;74.40;;;;;;5111002;28;20028;-85
2021/06/09 08:46:25;;;;;;;3.10;1.52;;;22.10;73.70;;;;;;5111789;28;20085;-86
2021/06/09 08:48:54;;;;;;;5.40;1.80;;;22.10;73.70;;;;;;5111472;28;20016;-87
2021/06/09 08:51:21;;;;;;;4.43;1.67;;;22.10;73.70;;;;;;5111632;28;20028;-87
2021/06/09 08:53:50;;;;;;;3.05;1.48;;;22.10;73.50;;;;;;5111429;28;20076;-88
2021/06/09 08:56:17;;;;;;;2.85;1.60;;;22.10;73.40;;;;;;5111351;28;20507;-86
2021/06/09 08:58:43;;;;;;;4.45;1.92;;;22.10;73.40;;;;;;5110501;28;20471;-88
2021/06/09 09:01:11;;;;;;;3.00;1.73;;;22.10;73.40;;;;;;5109711;28;20038;-88
2021/06/09 09:03:38;;;;;;;4.78;1.20;;;22.10;73.30;;;;;;5109926;28;20019;-86
2021/06/09 09:06:04;;;;;;;3.60;1.77;;;22.10;73.30;;;;;;5111497;28;20424;-86
2021/06/09 09:08:31;;;;;;;4.95;1.77;;;22.10;73.20;;;;;;5110707;28;20343;-87
2021/06/09 09:10:57;;;;;;;4.80;1.98;;;22.10;73.00;;;;;;5111517;28;20031;-85
2021/06/09 09:13:24;;;;;;;3.45;1.55;;;22.20;73.10;;;;;;5111452;28;20024;-88
2021/06/09 09:15:50;;;;;;;3.60;1.50;;;22.20;73.10;;;;;;5111352;28;20031;-87
2021/06/09 09:18:16;;;;;;;4.97;1.52;;;22.20;73.10;;;;;;5111293;28;20048;-86
2021/06/09 09:20:44;;;;;;;3.90;1.98;;;22.20;73.00;;;;;;5110805;28;20483;-86
2021/06/09 09:23:22;;;;;;;3.55;1.83;;;22.20;73.00;;;;;;5111082;28;20491;-86
2021/06/09 09:25:53;;;;;;;4.35;1.40;;;22.20;73.10;;;;;;5110804;28;20028;-87
2021/06/09 09:28:31;;;;;;;5.30;1.85;;;22.20;73.10;;;;;;5111238;28;20049;-84
2021/06/09 09:31:10;;;;;;;3.75;1.70;;;22.20;73.10;;;;;;5115142;28;20497;-85
2021/06/09 09:33:37;;;;;;;3.80;1.70;;;22.20;73.10;;;;;;5112849;28;20024;-84
2021/06/09 09:36:37;;;;;;;3.65;1.95;;;22.20;73.00;;;;;;5114941;28;20020;-87
2021/06/09 09:39:20;;;;;;;2.65;1.67;;;22.30;73.10;;;;;;5052033;28;20033;-85
2021/06/09 09:41:46;;;;;;;5.45;1.58;;;22.30;73.00;;;;;;5108999;28;20118;-84
2021/06/09 09:44:11;;;;;;;3.78;1.73;;;22.30;73.00;;;;;;5114271;28;20098;-88
2021/06/09 09:46:52;;;;;;;2.78;1.80;;;22.30;72.80;;;;;;5114663;28;20127;-88
2021/06/09 09:49:19;;;;;;;4.20;1.92;;;22.30;72.80;;;;;;5114901;28;20020;-87
2021/06/09 09:51:44;;;;;;;5.15;1.83;;;22.30;72.80;;;;;;5114765;28;20035;-85
2021/06/09 09:54:11;;;;;;;4.47;1.88;;;22.30;72.80;;;;;;5114345;28;20030;-88
2021/06/09 09:56:38;;;;;;;3.70;1.70;;;22.30;72.80;;;;;;5113443;28;20020;-85
2021/06/09 09:59:06;;;;;;;3.42;1.55;;;22.30;72.70;;;;;;5114016;28;20031;-85
2021/06/09 10:01:42;;;;;;;3.58;1.67;;;22.40;72.70;;;;;;5113940;28;20024;-84
2021/06/09 10:04:08;;;;;;;3.90;1.60;;;22.40;72.60;;;;;;5114260;28;20024;-85
2021/06/09 10:06:45;;;;;;;2.88;1.55;;;22.40;72.70;;;;;;5114352;28;20028;-85
2021/06/09 10:09:19;;;;;;;3.72;1.77;;;22.40;72.60;;;;;;5114215;28;20030;-84
2021/06/09 10:11:52;;;;;;;3.72;1.80;;;22.40;72.50;;;;;;5113489;28;20071;-85
2021/06/09 10:14:37;;;;;;;4.50;1.90;;;22.40;72.70;;;;;;5114173;28;20016;-82
2021/06/09 10:17:18;;;;;;;2.55;1.63;;;22.40;72.70;;;;;;5113725;27;20032;-85
2021/06/09 10:19:58;;;;;;;4.22;1.85;;;22.40;72.60;;;;;;5114100;28;20078;-84
2021/06/09 10:22:28;;;;;;;3.15;1.88;;;22.40;72.50;;;;;;5113378;28;20019;-83
2021/06/09 10:24:59;;;;;;;4.75;1.85;;;22.40;72.60;;;;;;5114069;28;20486;-88
2021/06/09 10:27:36;;;;;;;5.10;2.15;;;22.40;72.60;;;;;;5112274;28;20023;-86
2021/06/09 10:30:16;;;;;;;3.58;1.45;;;22.40;72.70;;;;;;5113260;28;20028;-87
2021/06/09 10:32:49;;;;;;;3.97;1.30;;;22.40;72.70;;;;;;5111452;28;20054;-89
2021/06/09 10:35:17;;;;;;;3.47;1.88;;;22.50;72.80;;;;;;5108989;28;20024;-84
2021/06/09 10:37:48;;;;;;;2.55;1.25;;;22.50;72.80;;;;;;5112495;28;20099;-86
2021/06/09 10:40:18;;;;;;;2.90;1.60;;;22.50;72.60;;;;;;5112526;28;20110;-90
2021/06/09 10:42:48;;;;;;;4.25;1.33;;;22.50;72.60;;;;;;5113337;28;20020;-92
2021/06/09 10:45:15;;;;;;;3.30;1.80;;;22.50;72.80;;;;;;5112834;28;20428;-90
2021/06/09 10:47:43;;;;;;;8.45;1.70;;;22.60;72.90;;;;;;5112705;28;20028;-90
2021/06/09 10:50:09;;;;;;;4.03;1.65;;;22.60;72.80;;;;;;5112742;28;20372;-83
2021/06/09 10:52:35;;;;;;;2.78;1.50;;;22.60;72.70;;;;;;5111999;28;20425;-81
2021/06/09 10:55:05;;;;;;;6.43;1.92;;;22.60;72.60;;;;;;5111955;28;20023;-87
2021/06/09 10:57:30;;;;;;;4.40;1.65;;;22.70;72.80;;;;;;5109757;28;20031;-88
2021/06/09 10:59:56;;;;;;;4.00;1.23;;;22.60;72.70;;;;;;5111009;28;20023;-84
2021/06/09 11:02:24;;;;;;;5.15;1.70;;;22.70;72.60;;;;;;5113523;28;20072;-86
2021/06/09 11:04:53;;;;;;;2.78;1.52;;;22.70;72.50;;;;;;5112163;28;20455;-85
2021/06/09 11:07:27;;;;;;;4.75;2.08;;;22.70;72.40;;;;;;5112276;28;20026;-91
2021/06/09 11:09:53;;;;;;;3.05;1.65;;;22.70;72.20;;;;;;5112426;28;20496;-88
2021/06/09 11:12:21;;;;;;;4.03;1.40;;;22.70;72.10;;;;;;5112240;28;20063;-88
2021/06/09 11:14:52;;;;;;;2.55;1.38;;;22.70;71.90;;;;;;5111957;28;20611;-88
2021/06/09 11:17:50;;;;;;;4.32;1.50;;;22.70;72.00;;;;;;5113489;28;20058;-87
2021/06/09 11:20:49;;;;;;;2.95;1.50;;;22.70;72.00;;;;;;5111804;28;20506;-86
2021/06/09 11:23:29;;;;;;;3.60;1.52;;;22.80;72.80;;;;;;5090125;28;20039;-86
2021/06/09 11:25:55;;;;;;;2.60;1.40;;;22.80;72.10;;;;;;5112646;28;20019;-86
2021/06/09 11:28:32;;;;;;;2.92;1.52;;;22.80;72.20;;;;;;5110618;28;20525;-88
2021/06/09 11:31:09;;;;;;;2.42;1.63;;;22.80;72.20;;;;;;5107970;28;20037;-85
2021/06/09 11:33:50;;;;;;;2.80;1.58;;;22.80;72.10;;;;;;5106828;28;20505;-85
2021/06/09 11:36:19;;;;;;;3.28;2.20;;;22.80;72.30;;;;;;5107355;28;20062;-84
2021/06/09 11:38:50;;;;;;;3.92;2.15;;;22.80;72.70;;;;;;5109469;28;20051;-86
2021/06/09 11:41:18;;;;;;;3.03;1.52;;;22.90;73.10;;;;;;5108256;28;20015;-85
2021/06/09 11:43:46;;;;;;;5.45;1.80;;;22.90;73.30;;;;;;5110516;28;20038;-85
2021/06/09 11:46:19;;;;;;;3.17;1.33;;;22.90;73.10;;;;;;5111183;28;20028;-85
2021/06/09 11:48:56;;;;;;;3.05;1.60;;;22.90;73.00;;;;;;5111775;28;20020;-85
2021/06/09 11:51:32;;;;;;;6.43;2.30;;;22.90;72.90;;;;;;5109318;28;20080;-85
2021/06/09 11:54:26;;;;;;;2.58;1.77;;;23.00;73.10;;;;;;5106823;28;20453;-85
2021/06/09 11:56:58;;;;;;;3.00;1.50;;;23.00;73.10;;;;;;5112101;28;20032;-85
2021/06/09 11:59:30;;;;;;;3.60;1.52;;;23.00;73.00;;;;;;5111633;28;20562;-85
2021/06/09 12:01:59;;;;;;;5.85;1.80;;;23.00;72.90;;;;;;5110512;28;20032;-86
2021/06/09 12:04:26;;;;;;;4.30;1.50;;;23.00;73.00;;;;;;5111992;28;20020;-88
2021/06/09 12:07:05;;;;;;;2.50;1.48;;;23.00;72.90;;;;;;5112211;28;20114;-90
2021/06/09 12:09:51;;;;;;;3.92;1.30;;;23.00;72.70;;;;;;5111235;28;20026;-85
2021/06/09 12:12:18;;;;;;;4.00;1.73;;;23.10;72.30;;;;;;5112426;28;20069;-88
2021/06/09 12:14:47;;;;;;;3.03;1.52;;;23.10;72.10;;;;;;5111307;28;20034;-89
2021/06/09 12:17:22;;;;;;;2.88;1.48;;;23.10;72.00;;;;;;5111378;28;20085;-90
2021/06/09 12:19:52;;;;;;;4.65;1.60;;;23.10;72.10;;;;;;5112415;28;20551;-87
2021/06/09 12:22:21;;;;;;;4.88;1.88;;;23.10;71.60;;;;;;5110739;28;20035;-86
2021/06/09 12:25:06;;;;;;;3.38;1.30;;;23.20;71.70;;;;;;5110505;28;20369;-87
2021/06/09 12:27:33;;;;;;;3.60;1.77;;;23.20;71.40;;;;;;5110488;28;20440;-87
2021/06/09 12:29:59;;;;;;;3.03;1.38;;;23.20;71.30;;;;;;5110275;28;20031;-87
2021/06/09 12:32:27;;;;;;;2.13;1.20;;;23.20;71.20;;;;;;5112059;28;20074;-87
2021/06/09 12:35:05;;;;;;;3.08;1.15;;;23.20;71.00;;;;;;5110967;28;20020;-86
2021/06/09 12:37:33;;;;;;;2.17;1.20;;;23.20;71.00;;;;;;5109915;28;20399;-87
2021/06/09 12:40:09;;;;;;;7.47;1.25;;;23.30;70.90;;;;;;5110780;28;20428;-88
2021/06/09 12:42:37;;;;;;;2.88;1.05;;;23.30;71.10;;;;;;5110384;28;20055;-87
2021/06/09 12:45:08;;;;;;;3.65;1.10;;;23.30;70.90;;;;;;5111705;28;20019;-86
2021/06/09 12:47:39;;;;;;;1.52;1.05;;;23.30;70.80;;;;;;5110321;28;20068;-87
2021/06/09 12:50:20;;;;;;;1.58;0.90;;;23.30;70.60;;;;;;5110537;28;20024;-88
2021/06/09 12:52:50;;;;;;;2.97;1.10;;;23.30;70.60;;;;;;5111610;28;20056;-87
2021/06/09 12:55:20;;;;;;;2.13;1.05;;;23.40;70.60;;;;;;5109631;28;20024;-87
2021/06/09 12:57:46;;;;;;;6.18;1.13;;;23.40;70.50;;;;;;5111067;28;20024;-87